Time;durP1;ratioP1;P1;durP2;ratioP2;P2;SDS_P1;SDS_P2;PMS_P1;PMS_P2;Temp;Humidity;BMP_temperature;BMP_pressure;BME280_temperature;BME280_humidity;BME280_pressure;Samples;Min_cycle;Max_cycle;Signal;HPM_P1;HPM_P2
2021/07/07 00:03:20;;;;;;;4.43;2.60;;;30.10;99.90;;;;;;5023906;28;20225;-95
2021/07/07 00:05:53;;;;;;;4.53;3.07;;;30.30;99.90;;;;;;5020619;28;20232;-94
2021/07/07 00:08:31;;;;;;;5.37;2.80;;;30.40;99.90;;;;;;5022294;28;20279;-95
2021/07/07 00:11:03;;;;;;;2.50;2.30;;;30.40;99.90;;;;;;5020696;28;20224;-95
2021/07/07 00:13:53;;;;;;;3.23;2.70;;;30.70;99.90;;;;;;5021262;28;20213;-96
2021/07/07 00:16:29;;;;;;;4.53;2.40;;;30.70;99.90;;;;;;5021649;28;20324;-95
2021/07/07 00:19:17;;;;;;;7.70;2.80;;;31.10;99.90;;;;;;5026223;28;20209;-95
2021/07/07 00:21:58;;;;;;;5.87;2.70;;;30.70;99.90;;;;;;5024056;28;20577;-94
2021/07/07 00:27:42;;;;;;;4.40;2.55;;;30.40;99.90;;;;;;5025546;28;20205;-95
2021/07/07 00:30:17;;;;;;;2.97;2.53;;;30.20;99.90;;;;;;5022750;28;20284;-95
2021/07/07 00:36:02;;;;;;;5.03;2.90;;;30.80;99.90;;;;;;5023521;28;20261;-95
2021/07/07 00:38:40;;;;;;;4.77;2.63;;;31.00;99.90;;;;;;5033473;28;20178;-90
2021/07/07 00:41:13;;;;;;;4.27;2.33;;;31.20;99.90;;;;;;5033429;28;20194;-96
2021/07/07 00:44:01;;;;;;;4.70;2.40;;;31.10;99.90;;;;;;5032602;28;20209;-95
2021/07/07 00:46:32;;;;;;;4.20;2.63;;;30.70;99.90;;;;;;5016769;28;20228;-96
2021/07/07 00:49:05;;;;;;;3.77;2.40;;;30.90;99.90;;;;;;5003467;28;20289;-95
2021/07/07 00:51:41;;;;;;;3.30;2.42;;;30.80;99.90;;;;;;4996161;28;20312;-96
2021/07/07 00:54:12;;;;;;;4.43;2.50;;;31.00;99.90;;;;;;5018545;28;20288;-96
2021/07/07 00:56:45;;;;;;;2.95;2.65;;;31.50;99.90;;;;;;5044310;28;20247;-96
2021/07/07 00:59:16;;;;;;;2.88;2.40;;;32.10;99.90;;;;;;5064596;28;20216;-96
2021/07/07 01:01:48;;;;;;;4.55;2.70;;;32.40;99.90;;;;;;5058126;28;20271;-96
2021/07/07 01:04:21;;;;;;;2.70;2.50;;;33.00;99.90;;;;;;5061574;28;20295;-96
2021/07/07 01:06:58;;;;;;;2.38;2.15;;;33.10;99.90;;;;;;5067662;28;20280;-96
2021/07/07 01:09:45;;;;;;;3.63;2.40;;;33.30;99.90;;;;;;5045286;28;20220;-96
2021/07/07 01:12:16;;;;;;;4.88;2.40;;;33.30;99.90;;;;;;5057881;28;20188;-96
2021/07/07 01:14:50;;;;;;;3.72;2.40;;;33.40;99.90;;;;;;5048739;28;20201;-96
2021/07/07 01:17:23;;;;;;;2.92;2.30;;;33.60;99.20;;;;;;5041323;28;20205;-96
2021/07/07 01:19:57;;;;;;;3.85;2.28;;;33.90;99.10;;;;;;5057546;28;20236;-96
2021/07/07 01:22:31;;;;;;;5.18;2.72;;;34.30;98.50;;;;;;5035228;28;20205;-92
2021/07/07 01:25:04;;;;;;;4.95;2.33;;;34.30;98.90;;;;;;5055495;28;20209;-96
2021/07/07 01:27:45;;;;;;;5.47;2.58;;;34.40;98.30;;;;;;5070875;28;20212;-96
2021/07/07 01:30:21;;;;;;;6.97;2.40;;;34.10;98.30;;;;;;5055803;28;20197;-96
2021/07/07 01:32:53;;;;;;;3.88;2.30;;;34.00;97.80;;;;;;5059421;28;20196;-96
2021/07/07 01:35:28;;;;;;;3.15;2.20;;;33.30;97.80;;;;;;5059029;28;20244;-96
2021/07/07 01:38:03;;;;;;;3.70;2.55;;;33.40;99.20;;;;;;5069754;28;20222;-96
2021/07/07 01:40:40;;;;;;;2.35;2.00;;;33.80;97.50;;;;;;5063533;28;20216;-96
2021/07/07 01:43:15;;;;;;;3.05;2.17;;;33.90;97.00;;;;;;5041216;28;20213;-96
2021/07/07 01:45:46;;;;;;;4.85;2.20;;;33.90;97.40;;;;;;5057383;28;20227;-96
2021/07/07 01:48:21;;;;;;;5.40;2.55;;;34.30;96.90;;;;;;5038075;28;20247;-96
2021/07/07 01:50:55;;;;;;;6.32;2.90;;;34.40;97.20;;;;;;5024006;28;20268;-96
2021/07/07 01:53:29;;;;;;;2.75;2.30;;;34.20;96.80;;;;;;5040248;28;20268;-96
2021/07/07 01:56:01;;;;;;;2.97;2.58;;;34.10;96.90;;;;;;5437324;22;20267;-96
2021/07/07 01:58:33;;;;;;;3.70;2.28;;;34.60;96.20;;;;;;5071638;28;20204;-96
2021/07/07 02:01:17;;;;;;;3.67;2.53;;;34.80;96.00;;;;;;5068749;28;20212;-96
2021/07/07 02:13:56;;;;;;;3.65;2.38;;;34.00;96.60;;;;;;5077706;28;20208;-96
2021/07/07 02:19:05;;;;;;;5.40;2.60;;;33.70;96.00;;;;;;5028930;28;20226;-96
2021/07/07 02:21:37;;;;;;;4.22;2.63;;;33.70;96.80;;;;;;5025731;28;20264;-96
2021/07/07 02:24:10;;;;;;;3.95;2.58;;;33.80;95.70;;;;;;5024941;28;20572;-96
2021/07/07 02:26:44;;;;;;;3.42;2.72;;;33.90;96.50;;;;;;5024233;28;20547;-96
2021/07/07 02:29:16;;;;;;;4.85;2.80;;;33.90;96.10;;;;;;5021939;28;20284;-96
2021/07/07 02:31:51;;;;;;;2.65;2.40;;;33.90;96.20;;;;;;5039806;28;20211;-96
2021/07/07 02:34:23;;;;;;;4.03;2.45;;;33.50;96.40;;;;;;5047585;28;20204;-96
2021/07/07 02:36:55;;;;;;;5.18;3.30;;;32.90;96.60;;;;;;5047983;28;20233;-96
2021/07/07 02:39:27;;;;;;;4.30;2.50;;;32.00;97.60;;;;;;5044448;28;20206;-96
2021/07/07 02:42:01;;;;;;;4.32;2.72;;;30.80;98.50;;;;;;5023610;28;20198;-96
2021/07/07 02:44:33;;;;;;;5.50;2.78;;;29.90;99.90;;;;;;5011563;28;20296;-96
2021/07/07 02:47:07;;;;;;;4.53;3.20;;;29.30;99.90;;;;;;5013886;28;20210;-96
2021/07/07 02:49:40;;;;;;;3.27;2.70;;;28.60;99.90;;;;;;5014012;28;20206;-96
2021/07/07 02:52:15;;;;;;;3.33;2.60;;;28.10;99.90;;;;;;5031262;28;20280;-93
2021/07/07 02:54:48;;;;;;;3.27;2.77;;;27.80;99.90;;;;;;5035724;28;20201;-94
2021/07/07 02:57:25;;;;;;;3.23;2.87;;;27.60;99.90;;;;;;5035652;28;20253;-95
2021/07/07 02:59:57;;;;;;;5.43;2.63;;;27.40;99.90;;;;;;5033796;28;20205;-95
2021/07/07 03:02:31;;;;;;;3.83;2.40;;;27.20;99.90;;;;;;5013876;28;20240;-95
2021/07/07 03:05:05;;;;;;;3.60;2.60;;;27.10;99.90;;;;;;5037848;28;20193;-95
2021/07/07 03:07:37;;;;;;;3.53;2.40;;;26.90;99.90;;;;;;5037815;28;20254;-95
2021/07/07 03:10:17;;;;;;;7.83;3.33;;;26.80;99.90;;;;;;5018809;28;20216;-95
2021/07/07 03:12:50;;;;;;;5.93;3.47;;;26.60;99.90;;;;;;5026568;28;20213;-96
2021/07/07 03:15:25;;;;;;;6.13;3.20;;;26.20;99.90;;;;;;5022468;28;20213;-96
2021/07/07 03:18:00;;;;;;;4.23;2.43;;;25.90;99.90;;;;;;5025074;28;20249;-96
2021/07/07 03:20:32;;;;;;;3.67;2.83;;;25.60;99.90;;;;;;5023919;28;20682;-96
2021/07/07 03:23:04;;;;;;;5.30;2.73;;;25.20;99.90;;;;;;5008378;28;20317;-96
2021/07/07 03:25:36;;;;;;;4.60;2.87;;;24.90;99.90;;;;;;5025323;28;20213;-96
2021/07/07 03:28:13;;;;;;;3.20;2.67;;;24.70;99.90;;;;;;5025490;28;20205;-96
2021/07/07 03:30:46;;;;;;;7.23;2.87;;;24.50;99.90;;;;;;5025088;28;20224;-96
2021/07/07 03:33:29;;;;;;;3.67;2.90;;;24.40;99.90;;;;;;5012809;28;20216;-96
2021/07/07 03:36:03;;;;;;;3.97;2.70;;;24.30;99.90;;;;;;5005438;28;20282;-96
2021/07/07 03:38:40;;;;;;;4.80;2.87;;;24.10;99.90;;;;;;5007276;28;20213;-96
2021/07/07 03:41:11;;;;;;;3.97;2.77;;;24.10;99.90;;;;;;4989311;28;20230;-96
2021/07/07 03:43:48;;;;;;;3.57;2.83;;;24.00;99.90;;;;;;5020558;28;20206;-96
2021/07/07 03:46:20;;;;;;;3.70;3.03;;;23.90;99.90;;;;;;5010924;28;20223;-96
2021/07/07 03:49:06;;;;;;;6.50;2.80;;;23.80;99.90;;;;;;5009396;28;20208;-96
2021/07/07 03:51:46;;;;;;;4.90;2.77;;;23.60;99.90;;;;;;5023806;28;20213;-96
2021/07/07 03:57:10;;;;;;;3.73;2.73;;;23.30;99.90;;;;;;5024242;28;20272;-96
2021/07/07 04:00:11;;;;;;;6.20;3.00;;;23.30;99.90;;;;;;5024653;28;20209;-96
2021/07/07 04:02:47;;;;;;;2.90;2.53;;;23.30;99.90;;;;;;5005014;28;20210;-96
2021/07/07 04:05:20;;;;;;;4.87;2.40;;;23.20;99.90;;;;;;5005032;28;20214;-96
2021/07/07 04:07:52;;;;;;;3.20;2.70;;;23.10;99.90;;;;;;5006732;28;20214;-96
2021/07/07 04:10:26;;;;;;;2.87;2.47;;;22.90;99.90;;;;;;5026095;28;20216;-96
2021/07/07 04:12:58;;;;;;;5.67;2.60;;;22.80;99.90;;;;;;5027209;28;20202;-96
2021/07/07 04:15:31;;;;;;;7.53;2.83;;;22.70;99.90;;;;;;5030649;28;20266;-96
2021/07/07 04:18:10;;;;;;;4.50;2.70;;;22.60;99.90;;;;;;5041373;28;20229;-96
2021/07/07 04:20:45;;;;;;;5.67;2.60;;;22.50;99.90;;;;;;5051197;28;20192;-96
2021/07/07 04:26:13;;;;;;;5.07;2.57;;;22.20;99.90;;;;;;5045824;28;20205;-94
2021/07/07 04:28:47;;;;;;;4.00;2.70;;;22.20;99.90;;;;;;5041430;28;20243;-96
2021/07/07 04:31:19;;;;;;;3.73;2.80;;;22.10;99.90;;;;;;5035622;28;20339;-96
2021/07/07 04:33:54;;;;;;;3.43;2.97;;;22.00;99.90;;;;;;5037003;28;20216;-96
2021/07/07 04:36:25;;;;;;;5.40;3.20;;;21.80;99.90;;;;;;5037473;28;20255;-96
2021/07/07 04:38:57;;;;;;;7.57;3.00;;;21.80;99.90;;;;;;5038078;28;20240;-96
2021/07/07 04:41:28;;;;;;;5.17;2.80;;;21.70;99.90;;;;;;5039170;28;20209;-96
2021/07/07 04:44:00;;;;;;;3.23;2.70;;;21.60;99.90;;;;;;5040414;28;20713;-96
2021/07/07 04:46:32;;;;;;;6.80;3.40;;;21.50;99.90;;;;;;5038261;28;20296;-96
2021/07/07 04:49:07;;;;;;;4.47;3.00;;;21.50;99.90;;;;;;5044417;28;20212;-96
2021/07/07 04:51:41;;;;;;;5.30;3.20;;;21.40;99.90;;;;;;5044191;28;20363;-95
2021/07/07 04:54:13;;;;;;;4.57;2.67;;;21.40;99.90;;;;;;5044371;28;20217;-96
2021/07/07 04:56:48;;;;;;;6.93;3.20;;;21.30;99.90;;;;;;5044327;28;20256;-96
2021/07/07 04:59:20;;;;;;;4.87;2.83;;;21.30;99.90;;;;;;5043494;28;20213;-96
2021/07/07 05:01:54;;;;;;;4.63;3.40;;;21.20;99.90;;;;;;5043158;28;20209;-96
2021/07/07 05:04:29;;;;;;;6.07;3.40;;;21.20;99.90;;;;;;5042352;28;20267;-96
2021/07/07 05:07:01;;;;;;;7.23;4.20;;;21.20;99.90;;;;;;5043132;28;20272;-96
2021/07/07 05:09:35;;;;;;;14.97;5.00;;;21.20;99.90;;;;;;5041253;28;20231;-96
2021/07/07 05:12:09;;;;;;;5.37;3.40;;;21.10;99.90;;;;;;5038950;28;20273;-96
2021/07/07 05:14:40;;;;;;;6.33;3.57;;;20.90;99.90;;;;;;5040161;28;20213;-96
2021/07/07 05:17:13;;;;;;;6.03;3.40;;;20.80;99.90;;;;;;5043802;28;20259;-96
2021/07/07 05:19:48;;;;;;;6.60;3.23;;;20.70;99.90;;;;;;5039855;28;20300;-96
2021/07/07 05:22:22;;;;;;;4.93;3.17;;;20.60;99.90;;;;;;5040013;28;20331;-96
2021/07/07 05:24:54;;;;;;;4.07;2.73;;;20.60;99.90;;;;;;5006090;28;20293;-96
2021/07/07 05:27:26;;;;;;;3.83;2.90;;;20.50;99.90;;;;;;5039280;28;20295;-96
2021/07/07 05:29:58;;;;;;;5.80;2.90;;;20.50;99.90;;;;;;5056651;28;20189;-96
2021/07/07 05:32:31;;;;;;;11.00;3.33;;;20.50;99.90;;;;;;5041616;28;20227;-96
2021/07/07 05:35:05;;;;;;;4.77;3.33;;;20.50;99.90;;;;;;5053181;28;20243;-96
2021/07/07 05:37:37;;;;;;;3.27;2.60;;;20.50;99.90;;;;;;5020261;28;20275;-96
2021/07/07 05:40:10;;;;;;;4.80;3.07;;;20.50;99.90;;;;;;5020394;28;20293;-96
2021/07/07 05:42:41;;;;;;;3.30;3.00;;;20.50;99.90;;;;;;5038245;28;20300;-95
2021/07/07 05:45:13;;;;;;;5.80;2.93;;;20.50;99.90;;;;;;5037709;28;20292;-96
2021/07/07 05:47:45;;;;;;;5.13;3.00;;;20.40;99.90;;;;;;5038329;28;20268;-96
2021/07/07 05:50:22;;;;;;;4.03;2.70;;;20.40;99.90;;;;;;5036072;28;20572;-96
2021/07/07 05:52:54;;;;;;;2.83;2.50;;;20.30;99.90;;;;;;5037969;28;20232;-96
2021/07/07 05:55:25;;;;;;;3.53;2.97;;;20.30;99.90;;;;;;5038256;28;20280;-96
2021/07/07 05:57:56;;;;;;;5.63;2.70;;;20.30;99.90;;;;;;5057225;28;20322;-96
2021/07/07 06:00:28;;;;;;;5.23;3.13;;;20.30;99.90;;;;;;5057252;28;20227;-96
2021/07/07 06:03:00;;;;;;;3.60;2.57;;;20.30;99.90;;;;;;5046632;28;20227;-95
2021/07/07 06:05:39;;;;;;;3.53;2.53;;;20.30;99.90;;;;;;5044129;28;20240;-96
2021/07/07 06:08:10;;;;;;;3.10;2.73;;;20.20;99.90;;;;;;5039669;28;20268;-96
2021/07/07 06:10:43;;;;;;;5.33;2.77;;;20.20;99.90;;;;;;5040161;28;20212;-95
2021/07/07 06:13:14;;;;;;;4.07;2.70;;;20.10;99.90;;;;;;5041901;28;20299;-95
2021/07/07 06:15:50;;;;;;;4.13;2.70;;;20.10;99.90;;;;;;5057969;28;20214;-96
2021/07/07 06:18:21;;;;;;;4.80;3.00;;;20.00;99.90;;;;;;5044003;28;20268;-96
2021/07/07 06:20:55;;;;;;;4.97;2.70;;;20.00;99.90;;;;;;5041798;28;20328;-96
2021/07/07 06:23:27;;;;;;;4.23;2.87;;;19.90;99.90;;;;;;5024211;28;20221;-96
2021/07/07 06:26:00;;;;;;;2.97;2.60;;;19.90;99.90;;;;;;5019511;28;20229;-96
2021/07/07 06:28:31;;;;;;;2.93;2.63;;;19.90;99.90;;;;;;4986132;28;20292;-95
2021/07/07 06:31:03;;;;;;;4.70;2.60;;;19.80;99.90;;;;;;5006907;28;20240;-95
2021/07/07 06:33:36;;;;;;;4.63;2.83;;;19.80;99.90;;;;;;5021835;28;20215;-95
2021/07/07 06:38:54;;;;;;;4.27;2.80;;;19.60;99.90;;;;;;5040457;28;20267;-96
2021/07/07 06:41:26;;;;;;;4.93;3.23;;;19.60;99.90;;;;;;5010543;28;20246;-96
2021/07/07 06:43:58;;;;;;;3.63;2.93;;;19.50;99.90;;;;;;5023869;28;20202;-96
2021/07/07 06:46:30;;;;;;;4.53;3.00;;;19.40;99.90;;;;;;5008560;28;20214;-96
2021/07/07 06:49:04;;;;;;;4.83;3.00;;;19.40;99.90;;;;;;5027172;28;20223;-96
2021/07/07 06:51:39;;;;;;;3.87;2.87;;;19.40;99.90;;;;;;5038087;28;20209;-96
2021/07/07 06:54:10;;;;;;;5.43;3.30;;;19.30;99.90;;;;;;5044879;28;20228;-96
2021/07/07 06:56:41;;;;;;;4.27;2.77;;;19.30;99.90;;;;;;5028723;28;20198;-96
2021/07/07 06:59:13;;;;;;;4.67;2.77;;;19.20;99.90;;;;;;5021540;28;20245;-94
2021/07/07 07:01:44;;;;;;;6.00;3.03;;;19.10;99.90;;;;;;5035467;28;20206;-95
2021/07/07 07:04:17;;;;;;;6.03;3.07;;;19.10;99.90;;;;;;5036028;28;20245;-95
2021/07/07 07:06:50;;;;;;;7.20;3.07;;;19.10;99.90;;;;;;5025514;28;20221;-95
2021/07/07 07:09:22;;;;;;;3.60;2.73;;;19.00;99.90;;;;;;5037394;28;20199;-95
2021/07/07 07:11:54;;;;;;;5.03;3.40;;;18.90;99.90;;;;;;5006595;28;20202;-95
2021/07/07 07:14:26;;;;;;;4.60;3.03;;;18.90;99.90;;;;;;5017978;28;20218;-95
2021/07/07 07:16:57;;;;;;;6.30;3.20;;;18.90;99.90;;;;;;5022547;28;20289;-95
2021/07/07 07:19:28;;;;;;;4.87;3.03;;;18.90;99.90;;;;;;5016963;28;20237;-95
2021/07/07 07:22:01;;;;;;;7.30;3.87;;;18.80;99.90;;;;;;5016337;28;20205;-96
2021/07/07 07:24:33;;;;;;;3.27;2.90;;;18.80;99.90;;;;;;5017763;28;20267;-94
2021/07/07 07:27:05;;;;;;;7.00;3.13;;;18.70;99.90;;;;;;5001838;28;20229;-95
2021/07/07 07:29:38;;;;;;;5.30;3.17;;;18.70;99.90;;;;;;5016928;28;20247;-96
2021/07/07 07:32:12;;;;;;;3.40;2.87;;;18.60;99.90;;;;;;5016247;28;20320;-96
2021/07/07 07:34:43;;;;;;;5.13;3.00;;;18.60;99.90;;;;;;5018516;28;20681;-96
2021/07/07 07:37:24;;;;;;;3.20;2.90;;;18.60;99.90;;;;;;5036463;28;20262;-96
2021/07/07 07:39:56;;;;;;;4.67;3.30;;;18.50;99.90;;;;;;5030203;28;20332;-95
2021/07/07 07:42:27;;;;;;;3.80;3.03;;;18.50;99.90;;;;;;5016479;28;20726;-96
2021/07/07 07:44:59;;;;;;;3.73;2.70;;;18.50;99.90;;;;;;4999203;28;20226;-96
2021/07/07 07:47:31;;;;;;;4.00;3.00;;;18.50;99.90;;;;;;5017044;28;20233;-96
2021/07/07 07:50:13;;;;;;;4.83;3.03;;;18.50;99.90;;;;;;5001903;28;20213;-95
2021/07/07 07:52:47;;;;;;;5.80;3.10;;;18.40;99.90;;;;;;5016792;28;20237;-95
2021/07/07 07:55:22;;;;;;;3.90;2.83;;;18.40;99.90;;;;;;5016574;28;20213;-95
2021/07/07 07:57:54;;;;;;;3.90;2.30;;;18.40;99.90;;;;;;5016744;28;20206;-95
2021/07/07 08:00:27;;;;;;;4.03;2.93;;;18.30;99.90;;;;;;5033381;28;20244;-94
2021/07/07 08:02:59;;;;;;;3.43;2.60;;;18.30;99.90;;;;;;5035855;28;20225;-94
2021/07/07 08:05:33;;;;;;;10.47;2.70;;;18.20;99.90;;;;;;5048446;28;20253;-94
2021/07/07 08:08:06;;;;;;;5.43;3.03;;;18.20;99.90;;;;;;5036601;28;20212;-94
2021/07/07 08:10:39;;;;;;;3.90;2.90;;;18.20;99.90;;;;;;5004170;28;20281;-94
2021/07/07 08:13:11;;;;;;;3.43;2.90;;;18.10;99.90;;;;;;5017132;28;20292;-94
2021/07/07 08:15:42;;;;;;;4.10;3.00;;;18.20;99.90;;;;;;5020237;28;20229;-94
2021/07/07 08:18:14;;;;;;;6.13;2.97;;;18.20;99.90;;;;;;5022096;28;20241;-94
2021/07/07 08:20:45;;;;;;;3.87;2.80;;;18.10;99.90;;;;;;5019271;28;20241;-96
2021/07/07 08:23:19;;;;;;;3.93;2.67;;;18.10;99.90;;;;;;5020352;28;20272;-95
2021/07/07 08:25:52;;;;;;;4.07;2.80;;;18.10;99.90;;;;;;5003278;28;20213;-95
2021/07/07 08:28:23;;;;;;;6.00;3.43;;;18.10;99.90;;;;;;5020610;28;20594;-95
2021/07/07 08:30:54;;;;;;;3.93;3.03;;;18.10;99.90;;;;;;5018687;28;20292;-95
2021/07/07 08:33:27;;;;;;;6.97;2.70;;;18.00;99.90;;;;;;5019817;28;20670;-96
2021/07/07 08:35:59;;;;;;;4.93;3.13;;;18.00;99.90;;;;;;5019802;28;20679;-96
2021/07/07 08:38:32;;;;;;;3.77;2.73;;;18.00;99.90;;;;;;5002227;28;20194;-96
2021/07/07 08:44:06;;;;;;;6.07;3.80;;;17.90;99.90;;;;;;5002196;28;20213;-96
2021/07/07 08:46:38;;;;;;;4.33;2.90;;;17.80;99.90;;;;;;4999272;28;20284;-96
2021/07/07 08:49:10;;;;;;;5.03;2.80;;;17.80;99.90;;;;;;4998545;28;20221;-96
2021/07/07 08:51:42;;;;;;;4.90;3.23;;;17.80;99.90;;;;;;5013273;28;20218;-94
2021/07/07 08:54:17;;;;;;;4.23;2.97;;;17.80;99.90;;;;;;5019097;28;20210;-94
2021/07/07 08:56:48;;;;;;;5.10;3.13;;;17.70;99.90;;;;;;5018948;28;20300;-95
2021/07/07 08:59:20;;;;;;;6.63;3.00;;;17.70;99.90;;;;;;5019413;28;20275;-96
2021/07/07 09:02:06;;;;;;;4.33;2.87;;;17.50;99.90;;;;;;5018969;28;20210;-95
2021/07/07 09:04:39;;;;;;;4.77;2.93;;;17.50;99.90;;;;;;5019410;28;20212;-94
2021/07/07 09:07:11;;;;;;;3.47;2.70;;;17.40;99.90;;;;;;5019406;28;20620;-93
2021/07/07 09:09:47;;;;;;;3.87;3.27;;;17.40;99.90;;;;;;5018632;28;20240;-95
2021/07/07 09:12:21;;;;;;;8.50;2.97;;;17.40;99.90;;;;;;5018605;28;20552;-95
2021/07/07 09:14:54;;;;;;;4.10;2.97;;;17.40;99.90;;;;;;5018171;28;20255;-94
2021/07/07 09:17:27;;;;;;;4.77;3.33;;;17.20;99.90;;;;;;5024350;28;20236;-94
2021/07/07 09:19:59;;;;;;;4.07;3.10;;;17.10;99.90;;;;;;5036735;28;20237;-96
2021/07/07 09:22:32;;;;;;;5.43;3.00;;;17.10;99.90;;;;;;5022097;28;20574;-95
2021/07/07 09:25:07;;;;;;;6.77;3.60;;;17.10;99.90;;;;;;5019946;28;20747;-95
2021/07/07 09:27:42;;;;;;;3.73;3.00;;;17.10;99.90;;;;;;5039068;28;20323;-96
2021/07/07 09:30:15;;;;;;;5.27;3.00;;;17.00;99.90;;;;;;5037810;28;20545;-95
2021/07/07 09:32:48;;;;;;;5.90;3.20;;;17.00;99.90;;;;;;5038485;28;20209;-95
2021/07/07 09:35:22;;;;;;;3.90;3.13;;;17.00;99.90;;;;;;5037987;28;20578;-95
2021/07/07 09:37:56;;;;;;;3.47;3.10;;;17.10;99.90;;;;;;5038434;28;20634;-96
2021/07/07 09:40:29;;;;;;;3.73;2.80;;;17.10;99.90;;;;;;5021037;28;20252;-94
2021/07/07 09:43:00;;;;;;;3.90;2.83;;;17.10;99.90;;;;;;5037962;28;20244;-96
2021/07/07 09:45:36;;;;;;;5.83;3.63;;;17.00;99.90;;;;;;5042016;28;20243;-95
2021/07/07 09:48:12;;;;;;;5.07;2.83;;;17.10;99.90;;;;;;5040414;28;20680;-95
2021/07/07 09:50:44;;;;;;;4.33;2.90;;;17.10;99.90;;;;;;5038811;28;20216;-95
2021/07/07 09:53:18;;;;;;;5.20;3.20;;;17.00;99.90;;;;;;5038753;28;20232;-94
2021/07/07 09:55:53;;;;;;;4.73;3.30;;;17.10;99.90;;;;;;5039154;28;20216;-95
2021/07/07 09:58:25;;;;;;;5.83;3.27;;;17.00;99.90;;;;;;5040383;28;20212;-95
2021/07/07 10:00:56;;;;;;;4.10;3.23;;;17.00;99.90;;;;;;5020745;28;20292;-96
2021/07/07 10:03:27;;;;;;;5.53;3.37;;;17.10;99.90;;;;;;5038915;28;20240;-93
2021/07/07 10:06:01;;;;;;;3.47;2.77;;;17.00;99.90;;;;;;5045613;28;20637;-93
2021/07/07 10:08:37;;;;;;;4.50;3.23;;;17.10;99.90;;;;;;5048812;28;20231;-95
2021/07/07 10:11:16;;;;;;;4.83;3.40;;;17.30;99.90;;;;;;5014665;28;20213;-95
2021/07/07 10:13:48;;;;;;;4.03;3.07;;;17.40;99.90;;;;;;5012290;28;20201;-93
2021/07/07 10:16:19;;;;;;;5.50;3.67;;;17.40;99.90;;;;;;5038325;28;20245;-93
2021/07/07 10:18:52;;;;;;;4.63;3.77;;;17.50;99.90;;;;;;5038631;28;20205;-94
2021/07/07 10:21:25;;;;;;;4.97;3.53;;;17.60;99.90;;;;;;5022095;28;20221;-96
2021/07/07 10:23:58;;;;;;;7.23;4.03;;;17.60;99.90;;;;;;5036973;28;20194;-96
2021/07/07 10:26:32;;;;;;;3.80;3.37;;;17.60;99.90;;;;;;5036011;28;20204;-96
2021/07/07 10:29:04;;;;;;;6.57;4.27;;;17.60;99.90;;;;;;5038310;28;20186;-93
2021/07/07 10:31:49;;;;;;;5.10;3.50;;;17.50;99.90;;;;;;5034851;28;20213;-94
2021/07/07 10:34:21;;;;;;;7.27;3.60;;;17.50;99.90;;;;;;5024871;28;20214;-95
2021/07/07 10:36:53;;;;;;;7.17;4.03;;;17.50;99.90;;;;;;5005532;28;20294;-96
2021/07/07 10:39:26;;;;;;;7.07;4.03;;;17.50;99.90;;;;;;5000356;28;20210;-95
2021/07/07 10:42:08;;;;;;;8.27;3.90;;;17.50;99.90;;;;;;4999251;28;20241;-95
2021/07/07 10:44:53;;;;;;;7.50;4.10;;;17.40;99.90;;;;;;5007371;28;20234;-95
2021/07/07 10:47:39;;;;;;;8.57;3.90;;;17.40;99.90;;;;;;5000303;28;20229;-95
2021/07/07 10:50:11;;;;;;;10.60;3.80;;;17.30;99.90;;;;;;4981058;28;20278;-94
2021/07/07 10:52:46;;;;;;;6.90;4.17;;;17.30;99.90;;;;;;4997622;28;20211;-95
2021/07/07 10:55:18;;;;;;;4.93;3.77;;;17.30;99.90;;;;;;5009017;28;20185;-94
2021/07/07 10:57:54;;;;;;;7.77;3.93;;;17.30;99.90;;;;;;5017163;28;20202;-94
2021/07/07 11:00:40;;;;;;;12.57;4.73;;;17.20;99.90;;;;;;5019499;28;20336;-94
2021/07/07 11:03:31;;;;;;;8.93;4.53;;;17.20;99.90;;;;;;5019075;28;20210;-95
2021/07/07 11:06:21;;;;;;;7.07;4.03;;;17.10;99.90;;;;;;5000881;28;20209;-95
2021/07/07 11:08:53;;;;;;;8.90;4.83;;;17.10;99.90;;;;;;5016857;28;20296;-95
2021/07/07 11:11:25;;;;;;;10.60;4.77;;;17.00;99.90;;;;;;4998492;28;20216;-95
2021/07/07 11:14:14;;;;;;;9.27;4.80;;;17.00;99.90;;;;;;5017334;28;20206;-95
2021/07/07 11:17:03;;;;;;;11.50;4.93;;;17.00;99.90;;;;;;4998806;28;20240;-93
2021/07/07 11:19:49;;;;;;;12.10;4.90;;;17.00;99.90;;;;;;5017122;28;20228;-96
2021/07/07 11:22:21;;;;;;;8.43;4.30;;;17.00;99.90;;;;;;5015596;28;20208;-96
2021/07/07 11:25:04;;;;;;;12.43;4.70;;;17.00;99.90;;;;;;5017999;28;20234;-96
2021/07/07 11:27:36;;;;;;;8.90;5.30;;;17.00;99.90;;;;;;5017640;28;20273;-96
2021/07/07 11:30:16;;;;;;;15.97;5.77;;;16.70;99.90;;;;;;4999567;28;20252;-96
2021/07/07 11:32:49;;;;;;;10.83;5.50;;;16.70;99.90;;;;;;5017103;28;20299;-95
2021/07/07 11:35:28;;;;;;;11.07;5.40;;;16.70;99.90;;;;;;5018647;28;20205;-96
2021/07/07 11:38:02;;;;;;;9.77;5.10;;;16.70;99.90;;;;;;5017974;28;20209;-96
2021/07/07 11:40:35;;;;;;;11.30;5.37;;;16.60;99.90;;;;;;5017740;28;20320;-96
2021/07/07 11:43:09;;;;;;;11.40;5.40;;;16.50;99.90;;;;;;5018320;28;20232;-96
2021/07/07 11:45:43;;;;;;;10.70;5.53;;;16.40;99.90;;;;;;5019360;28;20209;-96
2021/07/07 11:48:19;;;;;;;9.87;4.77;;;16.40;99.90;;;;;;5016218;28;20215;-96
2021/07/07 11:50:53;;;;;;;9.87;4.90;;;16.20;99.90;;;;;;5016385;28;20216;-95
2021/07/07 11:53:25;;;;;;;8.70;4.63;;;16.10;99.90;;;;;;5017493;28;20654;-95
2021/07/07 11:56:00;;;;;;;8.23;4.33;;;16.20;99.90;;;;;;5017357;28;20206;-95
2021/07/07 11:58:38;;;;;;;8.83;4.70;;;16.00;99.90;;;;;;4999990;28;20292;-94
2021/07/07 12:01:17;;;;;;;9.10;4.83;;;15.80;99.90;;;;;;5016070;28;20244;-94
2021/07/07 12:03:56;;;;;;;9.60;4.50;;;15.80;99.90;;;;;;5017706;28;20209;-94
2021/07/07 12:06:32;;;;;;;8.83;5.00;;;15.80;99.90;;;;;;5017834;28;20277;-95
2021/07/07 12:09:05;;;;;;;7.83;4.60;;;15.80;99.90;;;;;;5017646;28;20233;-95
2021/07/07 12:11:36;;;;;;;9.43;4.77;;;15.80;99.90;;;;;;5017348;28;20712;-94
2021/07/07 12:14:11;;;;;;;7.77;4.43;;;15.80;99.90;;;;;;5018453;28;20217;-94
2021/07/07 12:16:49;;;;;;;8.63;4.63;;;15.80;99.90;;;;;;5021115;28;20244;-94
2021/07/07 12:19:21;;;;;;;9.83;4.30;;;15.70;99.90;;;;;;5011900;28;20245;-93
2021/07/07 12:21:54;;;;;;;6.23;4.77;;;15.60;99.90;;;;;;5003191;28;20264;-95
2021/07/07 12:24:26;;;;;;;10.37;4.50;;;15.50;99.90;;;;;;5003939;28;20230;-96
2021/07/07 12:27:02;;;;;;;8.37;4.80;;;15.50;99.90;;;;;;5006733;28;20265;-96
2021/07/07 12:29:35;;;;;;;8.77;5.20;;;15.40;99.90;;;;;;5008782;28;20229;-95
2021/07/07 12:32:10;;;;;;;7.43;5.07;;;15.40;99.90;;;;;;5031906;28;20200;-96
2021/07/07 12:34:45;;;;;;;7.47;4.43;;;15.30;99.90;;;;;;5030669;28;20202;-96
2021/07/07 12:37:18;;;;;;;6.80;4.57;;;15.20;99.90;;;;;;5000565;28;20182;-96
2021/07/07 12:39:55;;;;;;;7.50;4.53;;;15.10;99.90;;;;;;5015127;28;20218;-94
2021/07/07 12:42:30;;;;;;;6.37;4.50;;;15.10;99.90;;;;;;5015459;28;20250;-96
2021/07/07 12:45:07;;;;;;;7.07;4.57;;;15.10;99.90;;;;;;5016777;28;20205;-96
2021/07/07 12:47:44;;;;;;;5.77;4.30;;;15.00;99.90;;;;;;5016972;28;20190;-95
2021/07/07 12:50:22;;;;;;;4.80;3.63;;;15.00;99.90;;;;;;5015956;28;20536;-94
2021/07/07 12:53:10;;;;;;;5.27;3.63;;;15.00;99.90;;;;;;5005349;28;20213;-95
2021/07/07 12:55:41;;;;;;;5.17;3.60;;;15.00;99.90;;;;;;5017027;28;20705;-94
2021/07/07 12:58:16;;;;;;;6.53;4.23;;;14.80;99.90;;;;;;5017443;28;20225;-95
2021/07/07 13:00:58;;;;;;;4.33;3.10;;;14.80;99.90;;;;;;5018583;28;20291;-95
2021/07/07 13:03:47;;;;;;;4.53;3.33;;;14.90;99.90;;;;;;5019483;28;20217;-95
2021/07/07 13:06:23;;;;;;;6.30;3.30;;;14.90;99.90;;;;;;5019083;28;20241;-94
2021/07/07 13:09:03;;;;;;;6.67;3.77;;;15.00;99.90;;;;;;5004161;28;20304;-94
2021/07/07 13:11:35;;;;;;;3.93;3.27;;;14.90;99.90;;;;;;5020799;28;20221;-94
2021/07/07 13:14:14;;;;;;;6.60;3.23;;;14.80;99.90;;;;;;5002588;28;20236;-94
2021/07/07 13:16:54;;;;;;;4.30;3.23;;;15.00;99.90;;;;;;5022108;28;20332;-95
2021/07/07 13:19:29;;;;;;;4.57;3.37;;;15.00;99.90;;;;;;5019053;28;20213;-95
2021/07/07 13:22:04;;;;;;;6.90;3.27;;;15.00;99.90;;;;;;5018894;28;20236;-96
2021/07/07 13:24:40;;;;;;;5.50;3.73;;;15.10;99.90;;;;;;5019932;28;20233;-95
2021/07/07 13:27:15;;;;;;;4.47;4.00;;;15.00;99.90;;;;;;5021255;28;20206;-95
2021/07/07 13:30:05;;;;;;;7.13;4.30;;;14.70;99.90;;;;;;5019444;28;20236;-96
2021/07/07 13:32:36;;;;;;;8.37;4.80;;;14.80;99.90;;;;;;5019691;28;20205;-96
2021/07/07 13:35:14;;;;;;;7.70;4.50;;;14.90;99.90;;;;;;5019810;28;20237;-96
2021/07/07 13:37:47;;;;;;;6.37;4.30;;;14.90;99.90;;;;;;5021542;28;20213;-95
2021/07/07 13:40:22;;;;;;;8.07;4.50;;;14.70;99.90;;;;;;5019602;28;20209;-96
2021/07/07 13:42:54;;;;;;;7.50;4.83;;;14.80;99.90;;;;;;5020761;28;20232;-96
2021/07/07 13:45:26;;;;;;;7.53;4.47;;;14.70;99.90;;;;;;4988453;28;20236;-96
2021/07/07 13:47:59;;;;;;;7.53;4.90;;;14.80;99.90;;;;;;5004969;28;20209;-96
2021/07/07 13:50:32;;;;;;;4.90;3.70;;;14.90;99.90;;;;;;5005698;28;20206;-95
2021/07/07 13:53:04;;;;;;;4.07;3.37;;;15.00;99.90;;;;;;5038732;28;20245;-95
2021/07/07 13:55:36;;;;;;;6.70;3.90;;;14.90;99.90;;;;;;5034897;28;20206;-95